createdAt,value
2022-11-03T00:01:51.462Z,6.95
2022-11-03T00:04:23.715Z,6.25
2022-11-03T00:06:55.528Z,6.67
2022-11-03T00:09:27.252Z,6.85
2022-11-03T00:11:56.487Z,6.53
2022-11-03T00:14:27.393Z,6.75
2022-11-03T00:17:33.694Z,7.15
2022-11-03T00:20:04.254Z,7.17
2022-11-03T00:22:33.815Z,7.47
2022-11-03T00:25:02.849Z,6.63
2022-11-03T00:27:32.159Z,5.00
2022-11-03T00:30:00.895Z,4.65
2022-11-03T00:32:29.750Z,4.10
2022-11-03T00:34:58.516Z,3.78
2022-11-03T00:37:28.885Z,4.68
2022-11-03T00:39:57.627Z,4.18
2022-11-03T00:42:26.401Z,5.00
2022-11-03T00:44:55.147Z,4.60
2022-11-03T00:47:24.416Z,4.88
2022-11-03T00:49:53.331Z,4.13
2022-11-03T00:52:22.088Z,4.00
2022-11-03T00:54:55.184Z,5.13
2022-11-03T00:57:24.161Z,5.00
2022-11-03T00:59:52.906Z,4.97
2022-11-03T01:02:21.697Z,5.07
2022-11-03T01:05:07.726Z,5.88
2022-11-03T01:07:36.412Z,6.28
2022-11-03T01:10:07.529Z,6.13
2022-11-03T01:12:36.320Z,6.10
2022-11-03T01:15:05.608Z,5.82
2022-11-03T01:17:34.391Z,5.93
2022-11-03T01:20:04.167Z,6.15
2022-11-03T01:22:32.971Z,6.47
2022-11-03T01:25:01.752Z,7.20
2022-11-03T01:27:37.197Z,6.47
2022-11-03T01:30:06.979Z,6.07
2022-11-03T01:32:35.799Z,5.88
2022-11-03T01:35:05.294Z,6.57
2022-11-03T01:37:34.149Z,8.18
2022-11-03T01:40:02.931Z,7.35
2022-11-03T01:42:33.725Z,7.55
2022-11-03T01:45:02.706Z,9.90
2022-11-03T01:47:36.337Z,7.50
2022-11-03T01:50:09.975Z,9.43
2022-11-03T01:52:44.774Z,10.65
2022-11-03T01:55:20.768Z,9.25
2022-11-03T01:57:57.088Z,7.30
2022-11-03T02:00:26.016Z,8.00
2022-11-03T02:02:56.058Z,8.63
2022-11-03T02:05:27.740Z,8.07
2022-11-03T02:08:05.051Z,8.30
2022-11-03T02:10:34.589Z,7.57
2022-11-03T02:13:13.997Z,6.97
2022-11-03T02:16:03.661Z,8.27
2022-11-03T02:18:35.593Z,8.35
2022-11-03T02:21:25.293Z,8.02
2022-11-03T02:24:03.100Z,7.75
2022-11-03T02:26:33.653Z,14.00
2022-11-03T02:29:02.507Z,9.65
2022-11-03T02:31:39.325Z,9.75
2022-11-03T02:34:16.505Z,11.35
2022-11-03T02:36:52.759Z,11.73
2022-11-03T02:39:26.304Z,10.80
2022-11-03T02:42:00.773Z,12.02
2022-11-03T02:44:31.100Z,23.38
2022-11-03T02:47:05.090Z,12.02
2022-11-03T02:49:39.131Z,10.93
2022-11-03T02:52:28.979Z,11.47
2022-11-03T02:55:01.580Z,10.10
2022-11-03T02:57:40.240Z,11.70
2022-11-03T03:00:11.220Z,10.75
2022-11-03T03:02:51.968Z,9.95
2022-11-03T03:05:26.553Z,11.67
2022-11-03T03:08:02.208Z,11.40
2022-11-03T03:10:39.408Z,10.13
2022-11-03T03:13:11.642Z,10.73
2022-11-03T03:15:47.861Z,11.38
2022-11-03T03:18:30.171Z,10.47
2022-11-03T03:21:05.882Z,10.95
2022-11-03T03:23:47.606Z,9.20
2022-11-03T03:26:26.157Z,8.20
2022-11-03T03:29:00.993Z,8.30
2022-11-03T03:31:38.158Z,10.10
2022-11-03T03:34:16.928Z,9.57
2022-11-03T03:37:00.308Z,9.10
2022-11-03T03:39:35.590Z,7.68
2022-11-03T03:42:09.764Z,7.15
2022-11-03T03:44:42.017Z,9.73
2022-11-03T03:47:18.986Z,9.20
2022-11-03T03:49:50.745Z,8.35
2022-11-03T03:52:20.121Z,8.55
2022-11-03T03:54:48.876Z,8.30
2022-11-03T03:57:23.424Z,7.60
2022-11-03T03:59:53.191Z,9.50
2022-11-03T04:02:22.000Z,9.02
2022-11-03T04:04:50.826Z,7.53
2022-11-03T04:07:42.407Z,6.93
2022-11-03T04:10:15.465Z,7.87
2022-11-03T04:13:07.130Z,8.75
2022-11-03T04:15:56.581Z,8.32
2022-11-03T04:18:44.072Z,9.10
2022-11-03T04:21:32.719Z,9.27
2022-11-03T04:24:01.703Z,8.47
2022-11-03T04:26:31.056Z,9.40
2022-11-03T04:29:03.664Z,12.63
2022-11-03T04:31:37.488Z,12.45
2022-11-03T04:34:11.551Z,15.40
2022-11-03T04:36:40.822Z,14.03
2022-11-03T04:39:20.331Z,15.82
2022-11-03T04:41:57.405Z,15.00
2022-11-03T04:44:32.184Z,14.55
2022-11-03T04:47:00.980Z,14.27
2022-11-03T04:49:29.950Z,12.33
2022-11-03T04:51:59.909Z,15.43
2022-11-03T04:54:28.875Z,13.98
2022-11-03T04:56:58.026Z,10.82
2022-11-03T04:59:28.151Z,12.85
2022-11-03T05:01:56.982Z,13.77
2022-11-03T05:04:26.406Z,11.43
2022-11-03T05:06:55.339Z,10.27
2022-11-03T05:09:30.695Z,10.70
2022-11-03T05:11:59.536Z,9.70
2022-11-03T05:14:31.968Z,9.95
2022-11-03T05:17:04.185Z,9.00
2022-11-03T05:19:37.827Z,7.75
2022-11-03T05:22:07.227Z,5.43
2022-11-03T05:24:37.697Z,6.13
2022-11-03T05:27:16.587Z,8.20
2022-11-03T05:29:47.439Z,5.83
2022-11-03T05:32:22.942Z,6.43
2022-11-03T05:34:54.161Z,7.68
2022-11-03T05:37:30.479Z,6.80
2022-11-03T05:40:05.162Z,8.52
2022-11-03T05:42:37.785Z,7.13
2022-11-03T05:45:22.020Z,6.80
2022-11-03T05:47:54.859Z,7.75
2022-11-03T05:50:26.831Z,5.45
2022-11-03T05:53:13.393Z,6.78
2022-11-03T05:55:44.019Z,7.40
2022-11-03T05:58:24.099Z,8.38
2022-11-03T06:00:54.517Z,6.43
2022-11-03T06:03:28.554Z,8.07
2022-11-03T06:05:59.752Z,6.93
2022-11-03T06:08:35.229Z,7.17
2022-11-03T06:11:05.558Z,6.93
2022-11-03T06:13:37.875Z,8.10
2022-11-03T06:16:37.618Z,6.88
2022-11-03T06:19:26.798Z,6.72
2022-11-03T06:21:59.423Z,8.50
2022-11-03T06:24:33.014Z,8.10
2022-11-03T06:27:01.877Z,6.88
2022-11-03T06:29:34.615Z,7.10
2022-11-03T06:32:04.833Z,5.07
2022-11-03T06:34:42.980Z,5.17
2022-11-03T06:37:25.796Z,5.47
2022-11-03T06:40:03.049Z,5.53
2022-11-03T06:42:34.299Z,4.85
2022-11-03T06:45:14.350Z,6.45
2022-11-03T06:47:44.452Z,5.67
2022-11-03T06:50:26.149Z,6.55
2022-11-03T06:52:56.596Z,5.60
2022-11-03T06:55:28.608Z,7.00
2022-11-03T06:58:01.606Z,6.85
2022-11-03T07:00:35.382Z,6.17
2022-11-03T07:03:12.008Z,7.80
2022-11-03T07:05:42.024Z,7.28
2022-11-03T07:08:23.879Z,7.10
2022-11-03T07:11:01.799Z,8.68
2022-11-03T07:13:33.975Z,9.40
2022-11-03T07:16:02.942Z,9.75
2022-11-03T07:18:36.747Z,9.88
2022-11-03T07:21:24.513Z,8.05
2022-11-03T07:23:54.009Z,9.68
2022-11-03T07:26:23.046Z,7.80
2022-11-03T07:28:52.796Z,9.65
2022-11-03T07:31:26.212Z,8.63
2022-11-03T07:34:00.624Z,8.80
2022-11-03T07:36:33.395Z,9.40
2022-11-03T07:39:03.844Z,8.27
2022-11-03T07:41:35.040Z,9.05
2022-11-03T07:44:05.094Z,7.25
2022-11-03T07:46:33.945Z,8.00
2022-11-03T07:49:04.696Z,6.90
2022-11-03T07:51:35.487Z,5.30
2022-11-03T07:54:14.870Z,4.70
2022-11-03T07:56:47.823Z,4.38
2022-11-03T07:59:21.563Z,4.25
2022-11-03T08:01:52.857Z,4.47
2022-11-03T08:04:27.092Z,4.50
2022-11-03T08:06:56.122Z,5.40
2022-11-03T08:09:25.024Z,6.63
2022-11-03T08:11:53.838Z,4.18
2022-11-03T08:14:22.578Z,4.93
2022-11-03T08:16:51.260Z,5.20
2022-11-03T08:19:19.949Z,5.78
2022-11-03T08:21:50.256Z,7.35
2022-11-03T08:24:18.896Z,7.03
2022-11-03T08:26:47.723Z,6.13
2022-11-03T08:29:17.650Z,4.77
2022-11-03T08:31:46.730Z,5.28
2022-11-03T08:34:15.389Z,4.70
2022-11-03T08:36:44.244Z,5.43
2022-11-03T08:39:14.365Z,4.60
2022-11-03T08:41:43.035Z,3.70
2022-11-03T08:44:11.695Z,4.35
2022-11-03T08:46:40.340Z,4.57
2022-11-03T08:49:09.637Z,5.03
2022-11-03T08:51:43.156Z,4.35
2022-11-03T08:54:14.497Z,4.40
2022-11-03T08:56:43.933Z,4.95
2022-11-03T08:59:12.603Z,4.40
2022-11-03T09:01:41.396Z,4.78
2022-11-03T09:04:10.142Z,4.32
2022-11-03T09:06:39.054Z,5.63
2022-11-03T09:11:57.905Z,4.60
2022-11-03T09:14:26.645Z,4.93
2022-11-03T09:16:55.351Z,4.47
2022-11-03T09:19:24.080Z,4.90
2022-11-03T09:21:53.078Z,5.65
2022-11-03T09:24:21.760Z,5.72
2022-11-03T09:26:50.478Z,5.85
2022-11-03T09:29:20.760Z,5.55
2022-11-03T09:31:49.696Z,5.30
2022-11-03T09:34:18.357Z,4.82
2022-11-03T09:36:52.960Z,5.38
2022-11-03T09:39:21.917Z,4.95
2022-11-03T09:41:58.330Z,4.60
2022-11-03T09:44:30.854Z,5.97
2022-11-03T09:47:01.111Z,5.93
2022-11-03T09:49:33.714Z,6.03
2022-11-03T09:52:05.742Z,5.25
2022-11-03T09:54:34.556Z,5.32
2022-11-03T09:57:14.349Z,5.23
2022-11-03T09:59:47.703Z,4.25
2022-11-03T10:02:25.339Z,4.40
2022-11-03T10:04:57.323Z,4.57
2022-11-03T10:07:30.062Z,4.55
2022-11-03T10:10:01.446Z,5.60
2022-11-03T10:12:37.843Z,5.47
2022-11-03T10:15:15.755Z,6.07
2022-11-03T10:17:45.961Z,4.88
2022-11-03T10:20:18.797Z,4.75
2022-11-03T10:22:52.866Z,5.00
2022-11-03T10:25:46.612Z,4.70
2022-11-03T10:28:22.336Z,4.85
2022-11-03T10:31:15.003Z,5.30
2022-11-03T10:33:54.894Z,5.07
2022-11-03T10:36:27.153Z,5.47
2022-11-03T10:38:56.898Z,5.32
2022-11-03T10:41:27.859Z,5.82
2022-11-03T10:44:08.165Z,5.65
2022-11-03T10:46:55.001Z,5.15
2022-11-03T10:49:24.921Z,5.30
2022-11-03T10:51:56.225Z,5.45
2022-11-03T10:54:26.658Z,5.25
2022-11-03T10:56:55.381Z,5.80
2022-11-03T10:59:32.010Z,5.88
2022-11-03T11:02:03.371Z,4.67
2022-11-03T11:04:34.265Z,5.50
2022-11-03T11:07:03.413Z,6.63
2022-11-03T11:09:32.213Z,5.53
2022-11-03T11:12:16.191Z,5.75
2022-11-03T11:14:58.540Z,5.33
2022-11-03T11:17:48.166Z,5.13
2022-11-03T11:20:45.707Z,5.35
2022-11-03T11:23:48.139Z,5.85
2022-11-03T11:26:34.797Z,5.35
2022-11-03T11:29:43.509Z,5.57
2022-11-03T11:32:59.307Z,5.25
2022-11-03T11:36:27.828Z,3.33
2022-11-03T11:39:01.465Z,4.70
2022-11-03T11:42:09.207Z,5.63
2022-11-03T11:44:57.963Z,5.53
2022-11-03T11:47:48.132Z,5.15
2022-11-03T11:50:34.353Z,5.07
2022-11-03T11:53:28.994Z,5.63
2022-11-03T11:56:02.748Z,5.13
2022-11-03T11:58:42.449Z,3.57
2022-11-03T12:01:25.181Z,4.53
2022-11-03T12:03:57.879Z,4.68
2022-11-03T12:06:39.934Z,4.10
2022-11-03T12:09:16.656Z,5.22
2022-11-03T12:11:50.187Z,4.60
2022-11-03T12:14:27.247Z,3.72
2022-11-03T12:16:56.804Z,3.60
2022-11-03T12:19:44.083Z,3.75
2022-11-03T12:22:41.186Z,3.72
2022-11-03T12:25:36.360Z,4.03
2022-11-03T12:28:05.653Z,4.25
2022-11-03T12:30:39.694Z,4.50
2022-11-03T12:33:10.940Z,4.47
2022-11-03T12:35:39.817Z,4.57
2022-11-03T12:38:10.025Z,3.80
2022-11-03T12:40:38.632Z,4.13
2022-11-03T12:43:07.573Z,4.35
2022-11-03T12:45:36.390Z,3.88
2022-11-03T12:48:06.289Z,4.25
2022-11-03T12:50:35.096Z,4.07
2022-11-03T12:53:03.963Z,3.47
2022-11-03T12:55:34.375Z,4.53
2022-11-03T12:58:04.211Z,4.53
2022-11-03T13:00:33.030Z,3.67
2022-11-03T13:03:01.680Z,3.57
2022-11-03T13:05:30.683Z,3.55
2022-11-03T13:07:59.462Z,2.75
2022-11-03T13:10:28.164Z,3.67
2022-11-03T13:12:58.188Z,3.38
2022-11-03T13:15:26.900Z,3.73
2022-11-03T13:18:12.967Z,4.53
2022-11-03T13:20:44.955Z,5.13
2022-11-03T13:23:17.451Z,4.82
2022-11-03T13:25:49.279Z,4.40
2022-11-03T13:28:19.469Z,4.00
2022-11-03T13:30:49.199Z,3.50
2022-11-03T13:33:18.189Z,3.38
2022-11-03T13:35:46.981Z,4.15
2022-11-03T13:38:15.952Z,4.55
2022-11-03T13:41:05.326Z,1.83
2022-11-03T13:43:34.818Z,4.57
2022-11-03T13:46:05.232Z,4.40
2022-11-03T13:51:22.989Z,5.07
2022-11-03T13:59:30.913Z,7.85
2022-11-03T14:04:48.719Z,10.30
2022-11-03T14:07:17.398Z,8.80
2022-11-03T14:09:46.173Z,8.25
2022-11-03T14:12:33.142Z,6.05
2022-11-03T14:15:05.652Z,5.38
2022-11-03T14:17:34.667Z,5.80
2022-11-03T14:20:04.778Z,4.07
2022-11-03T14:22:34.130Z,4.45
2022-11-03T14:25:03.295Z,4.90
2022-11-03T14:27:32.168Z,4.63
2022-11-03T14:30:02.316Z,5.35
2022-11-03T14:32:32.415Z,4.13
2022-11-03T14:35:01.604Z,5.13
2022-11-03T14:37:32.560Z,5.03
2022-11-03T14:40:01.339Z,4.25
2022-11-03T14:42:29.408Z,5.88
2022-11-03T14:44:58.158Z,5.10
2022-11-03T14:47:31.525Z,5.13
2022-11-03T14:50:00.374Z,5.72
2022-11-03T14:52:29.348Z,4.95
2022-11-03T14:54:58.116Z,4.97
2022-11-03T14:57:26.793Z,5.30
2022-11-03T14:59:55.487Z,4.88
2022-11-03T15:02:25.117Z,4.32
2022-11-03T15:04:55.635Z,5.20
2022-11-03T15:07:25.540Z,4.53
2022-11-03T15:09:54.294Z,5.17
2022-11-03T15:12:23.589Z,5.30
2022-11-03T15:14:52.275Z,5.22
2022-11-03T15:17:21.114Z,6.65
2022-11-03T15:19:50.028Z,5.38
2022-11-03T15:22:20.209Z,4.87
2022-11-03T15:27:39.012Z,6.43
2022-11-03T15:30:09.601Z,6.28
2022-11-03T15:32:38.380Z,6.28
2022-11-03T15:35:08.106Z,7.37
2022-11-03T15:37:38.251Z,6.35
2022-11-03T15:40:08.773Z,6.18
2022-11-03T15:42:37.584Z,5.65
2022-11-03T15:45:08.090Z,5.07
2022-11-03T15:47:36.857Z,5.80
2022-11-03T15:50:05.855Z,4.93
2022-11-03T15:52:34.806Z,4.85
2022-11-03T15:55:06.114Z,4.43
2022-11-03T15:57:35.158Z,7.53
2022-11-03T16:00:06.466Z,6.40
2022-11-03T16:02:41.398Z,3.35
2022-11-03T16:05:11.510Z,4.10
2022-11-03T16:07:40.324Z,4.65
2022-11-03T16:10:11.234Z,4.07
2022-11-03T16:12:41.389Z,3.67
2022-11-03T16:15:11.953Z,4.85
2022-11-03T16:17:45.392Z,4.20
2022-11-03T16:20:14.782Z,3.42
2022-11-03T16:22:43.434Z,4.28
2022-11-03T16:25:16.714Z,4.20
2022-11-03T16:27:47.848Z,3.85
2022-11-03T16:30:16.583Z,4.82
2022-11-03T16:32:45.163Z,4.88
2022-11-03T16:35:13.807Z,9.60
2022-11-03T16:37:42.505Z,5.47
2022-11-03T16:40:19.138Z,5.35
2022-11-03T16:42:48.815Z,4.25
2022-11-03T16:45:20.852Z,4.57
2022-11-03T16:47:51.199Z,6.88
2022-11-03T16:50:21.063Z,4.53
2022-11-03T16:52:51.364Z,4.95
2022-11-03T16:55:22.043Z,4.50
2022-11-03T16:57:52.987Z,4.82
2022-11-03T17:00:24.260Z,6.22
2022-11-03T17:02:53.470Z,29.40
2022-11-03T17:05:23.485Z,8.23
2022-11-03T17:07:54.181Z,4.05
2022-11-03T17:10:29.309Z,7.22
2022-11-03T17:12:58.301Z,2.85
2022-11-03T17:15:27.500Z,4.03
2022-11-03T17:17:56.516Z,3.47
2022-11-03T17:20:26.171Z,4.07
2022-11-03T17:22:56.057Z,3.35
2022-11-03T17:25:27.426Z,3.88
2022-11-03T17:28:00.628Z,3.87
2022-11-03T17:30:35.349Z,3.83
2022-11-03T17:33:09.577Z,2.95
2022-11-03T17:35:42.184Z,3.97
2022-11-03T17:38:15.766Z,4.30
2022-11-03T17:40:49.355Z,4.90
2022-11-03T17:43:24.918Z,4.82
2022-11-03T17:45:57.348Z,10.43
2022-11-03T17:48:26.528Z,4.70
2022-11-03T17:50:58.604Z,2.70
2022-11-03T17:53:31.374Z,2.10
2022-11-03T17:56:29.081Z,3.00
2022-11-03T17:58:53.803Z,1.80
2022-11-03T18:01:24.746Z,1.10
2022-11-03T18:03:55.990Z,2.50
2022-11-03T18:06:25.620Z,1.63
2022-11-03T18:09:00.153Z,1.63
2022-11-03T18:11:50.075Z,2.95
2022-11-03T18:14:20.114Z,2.95
2022-11-03T18:16:53.153Z,1.08
2022-11-03T18:19:23.030Z,2.87
2022-11-03T18:21:52.362Z,3.22
2022-11-03T18:24:23.203Z,3.85
2022-11-03T18:27:39.500Z,4.88
2022-11-03T18:30:23.015Z,6.63
2022-11-03T18:32:56.453Z,3.97
2022-11-03T18:35:31.290Z,4.03
2022-11-03T18:38:10.677Z,4.60
2022-11-03T18:40:40.155Z,6.72
2022-11-03T18:43:18.597Z,3.75
2022-11-03T18:45:49.130Z,2.60
2022-11-03T18:48:28.420Z,2.50
2022-11-03T18:51:00.516Z,3.17
2022-11-03T18:53:30.881Z,3.10
2022-11-03T18:56:02.982Z,0.95
2022-11-03T18:58:36.565Z,1.80
2022-11-03T19:01:07.343Z,2.10
2022-11-03T19:03:36.853Z,3.17
2022-11-03T19:06:06.731Z,2.30
2022-11-03T19:08:38.935Z,2.85
2022-11-03T19:11:11.925Z,4.17
2022-11-03T19:13:51.456Z,3.90
2022-11-03T19:16:32.083Z,3.65
2022-11-03T19:19:01.653Z,3.22
2022-11-03T19:21:41.016Z,1.70
2022-11-03T19:24:14.395Z,2.30
2022-11-03T19:26:52.332Z,0.90
2022-11-03T19:29:34.329Z,1.60
2022-11-03T19:32:06.257Z,1.92
2022-11-03T19:34:37.614Z,1.60
2022-11-03T19:37:08.034Z,3.40
2022-11-03T19:39:41.167Z,3.35
2022-11-03T19:42:32.371Z,1.55
2022-11-03T19:45:13.078Z,1.50
2022-11-03T19:48:10.620Z,2.03
2022-11-03T19:50:38.661Z,1.60
2022-11-03T19:53:09.582Z,2.53
2022-11-03T19:55:43.954Z,2.20
2022-11-03T19:58:18.364Z,2.17
2022-11-03T20:00:54.032Z,0.82
2022-11-03T20:03:24.074Z,0.40
2022-11-03T20:05:59.148Z,1.17
2022-11-03T20:08:33.564Z,0.90
2022-11-03T20:11:03.143Z,5.38
2022-11-03T20:13:39.656Z,1.45
2022-11-03T20:16:18.623Z,1.17
2022-11-03T20:18:49.240Z,1.85
2022-11-03T20:21:22.523Z,1.30
2022-11-03T20:23:53.105Z,1.95
2022-11-03T20:26:25.025Z,1.92
2022-11-03T20:28:57.028Z,1.23
2022-11-03T20:31:27.774Z,0.60
2022-11-03T20:33:57.091Z,0.65
2022-11-03T20:36:27.414Z,0.50
2022-11-03T20:38:59.769Z,4.88
2022-11-03T20:41:30.782Z,3.07
2022-11-03T20:44:01.437Z,0.55
2022-11-03T20:46:34.811Z,0.52
2022-11-03T20:49:07.289Z,0.40
2022-11-03T20:51:46.080Z,0.80
2022-11-03T20:54:20.445Z,0.97
2022-11-03T20:56:51.292Z,1.55
2022-11-03T20:59:32.053Z,0.75
2022-11-03T21:02:15.627Z,0.60
2022-11-03T21:04:48.416Z,0.63
2022-11-03T21:07:21.124Z,0.70
2022-11-03T21:09:51.509Z,0.98
2022-11-03T21:12:26.984Z,1.00
2022-11-03T21:15:13.704Z,0.35
2022-11-03T21:18:01.644Z,0.77
2022-11-03T21:20:33.700Z,1.43
2022-11-03T21:23:17.718Z,0.70
2022-11-03T21:25:49.305Z,0.50
2022-11-03T21:28:18.913Z,5.20
2022-11-03T21:30:49.733Z,1.25
2022-11-03T21:33:21.358Z,0.80
2022-11-03T21:35:52.612Z,0.98
2022-11-03T21:38:21.275Z,1.08
2022-11-03T21:41:12.439Z,0.43
2022-11-03T21:43:58.811Z,1.15
2022-11-03T21:46:27.445Z,0.90
2022-11-03T21:49:14.623Z,1.40
2022-11-03T21:51:43.342Z,0.80
2022-11-03T21:54:12.006Z,0.70
2022-11-03T21:56:40.736Z,1.20
2022-11-03T21:59:09.627Z,1.20
2022-11-03T22:01:38.436Z,1.52
2022-11-03T22:04:08.658Z,1.73
2022-11-03T22:06:37.531Z,1.45
2022-11-03T22:09:06.338Z,0.80
2022-11-03T22:11:35.080Z,1.10
2022-11-03T22:14:04.684Z,1.10
2022-11-03T22:16:38.364Z,0.60
2022-11-03T22:19:29.835Z,1.17
2022-11-03T22:22:16.591Z,0.80
2022-11-03T22:25:02.836Z,1.00
2022-11-03T22:27:34.983Z,0.93
2022-11-03T22:30:21.287Z,1.38
2022-11-03T22:32:53.494Z,1.35
2022-11-03T22:35:43.156Z,0.90
2022-11-03T22:38:15.159Z,1.30
2022-11-03T22:41:05.009Z,1.27
2022-11-03T22:43:51.369Z,1.33
2022-11-03T22:46:20.913Z,1.23
2022-11-03T22:48:49.687Z,0.75
2022-11-03T22:51:19.661Z,1.17
2022-11-03T22:54:05.770Z,1.13
2022-11-03T22:56:34.681Z,0.60
2022-11-03T22:59:03.310Z,0.80
2022-11-03T23:01:32.390Z,0.68
2022-11-03T23:04:01.149Z,0.53
2022-11-03T23:06:37.685Z,0.40
2022-11-03T23:09:06.964Z,0.60
2022-11-03T23:11:36.144Z,0.80
2022-11-03T23:14:07.767Z,1.00
2022-11-03T23:16:39.889Z,0.60
2022-11-03T23:19:29.556Z,4.53
2022-11-03T23:22:00.740Z,0.30
2022-11-03T23:24:47.480Z,1.17
2022-11-03T23:27:18.575Z,1.00
2022-11-03T23:29:47.960Z,0.60
2022-11-03T23:32:17.129Z,0.50
2022-11-03T23:34:51.401Z,9.43
2022-11-03T23:37:21.632Z,1.42
2022-11-03T23:39:50.770Z,0.50
2022-11-03T23:42:19.559Z,0.10
2022-11-03T23:45:05.578Z,0.28
2022-11-03T23:47:51.753Z,0.20
2022-11-03T23:50:20.561Z,0.50
2022-11-03T23:52:53.456Z,0.40
2022-11-03T23:55:23.523Z,0.10
2022-11-03T23:58:10.195Z,0.20
